Time;durP1;ratioP1;P1;durP2;ratioP2;P2;SDS_P1;SDS_P2;PMS_P1;PMS_P2;Temp;Humidity;BMP_temperature;BMP_pressure;BME280_temperature;BME280_humidity;BME280_pressure;Samples;Min_cycle;Max_cycle;Signal;HPM_P1;HPM_P2
2022/03/19 00:00:59;;;;;;;89.07;46.23;;;;;;;-3.80;53.46;103290.52;3438162;80;21011;-68
2022/03/19 00:05:51;;;;;;;98.10;46.95;;;;;;;-3.84;53.39;103299.05;3403389;81;21105;-69
2022/03/19 00:10:45;;;;;;;88.25;45.20;;;;;;;-3.93;53.43;103300.91;3458464;80;20966;-68
2022/03/19 00:15:37;;;;;;;91.87;42.85;;;;;;;-3.97;53.88;103300.91;3498667;80;20966;-68
2022/03/19 00:20:32;;;;;;;95.50;46.53;;;;;;;-3.98;53.75;103301.63;3462971;80;22222;-69
2022/03/19 00:25:25;;;;;;;104.75;47.30;;;;;;;-4.04;53.92;103292.03;3497379;80;20955;-69
2022/03/19 00:30:17;;;;;;;94.72;46.02;;;;;;;-4.08;54.09;103298.39;3431233;80;21134;-69
2022/03/19 00:35:10;;;;;;;103.45;48.45;;;;;;;-4.15;54.39;103288.57;3470199;80;21416;-68
2022/03/19 00:40:04;;;;;;;102.05;48.60;;;;;;;-4.13;54.35;103290.92;3486635;79;21488;-68
2022/03/19 00:44:57;;;;;;;115.47;53.02;;;;;;;-4.27;54.36;103287.69;3406305;80;21022;-69
2022/03/19 00:49:49;;;;;;;124.60;54.70;;;;;;;-4.29;54.82;103286.59;3392728;80;21094;-68
2022/03/19 00:54:41;;;;;;;121.57;55.45;;;;;;;-4.29;54.68;103290.75;3416658;80;20939;-68
2022/03/19 00:59:33;;;;;;;112.97;52.78;;;;;;;-4.37;54.57;103299.12;3431423;80;21615;-68
2022/03/19 01:04:25;;;;;;;111.80;52.80;;;;;;;-4.48;54.79;103293.67;3461488;80;20979;-68
2022/03/19 01:09:18;;;;;;;106.22;49.30;;;;;;;-4.60;55.05;103293.13;3436301;80;21013;-69
2022/03/19 01:14:10;;;;;;;103.20;50.40;;;;;;;-4.62;55.09;103294.93;3368266;80;20992;-68
2022/03/19 01:19:03;;;;;;;105.63;48.42;;;;;;;-4.66;55.36;103289.84;3469805;80;20947;-68
2022/03/19 01:23:55;;;;;;;113.22;53.87;;;;;;;-4.70;55.48;103291.48;3390773;82;21043;-69
2022/03/19 01:28:47;;;;;;;103.53;47.70;;;;;;;-4.74;55.74;103280.39;3469900;82;21547;-69
2022/03/19 01:33:41;;;;;;;117.55;56.70;;;;;;;-4.80;56.04;103292.37;3427018;82;21494;-68
2022/03/19 01:38:33;;;;;;;115.88;54.50;;;;;;;-4.79;56.06;103278.97;3430068;80;20892;-69
2022/03/19 01:43:26;;;;;;;111.52;53.35;;;;;;;-4.86;55.99;103284.03;3410344;82;20951;-68
2022/03/19 01:48:19;;;;;;;104.43;51.77;;;;;;;-4.93;56.24;103279.84;3390823;82;21022;-68
2022/03/19 01:53:11;;;;;;;108.25;50.38;;;;;;;-4.94;56.09;103277.11;3384962;80;20986;-68
2022/03/19 01:58:08;;;;;;;117.95;52.98;;;;;;;-5.03;56.17;103289.23;3415179;82;21576;-69
2022/03/19 02:03:02;;;;;;;111.17;55.92;;;;;;;-5.06;56.35;103287.95;3430678;80;20887;-69
2022/03/19 02:07:55;;;;;;;113.85;52.58;;;;;;;-5.12;56.45;103291.92;3417282;82;21063;-69
2022/03/19 02:12:47;;;;;;;119.47;54.77;;;;;;;-5.17;56.69;103293.92;3420484;82;21205;-69
2022/03/19 02:17:40;;;;;;;109.00;51.70;;;;;;;-5.22;57.01;103290.29;3418068;82;20896;-69
2022/03/19 02:22:33;;;;;;;114.12;54.63;;;;;;;-5.22;57.04;103285.22;3422255;82;20979;-69
2022/03/19 02:27:25;;;;;;;108.42;52.03;;;;;;;-5.26;57.04;103289.34;3466760;82;21437;-69
2022/03/19 02:32:17;;;;;;;122.67;53.23;;;;;;;-5.29;57.12;103286.42;3438066;82;21480;-69
2022/03/19 02:37:10;;;;;;;107.37;50.15;;;;;;;-5.37;57.18;103286.77;3478781;81;21019;-69
2022/03/19 02:42:06;;;;;;;95.72;47.17;;;;;;;-5.43;56.98;103295.81;3407775;82;20980;-69
2022/03/19 02:47:02;;;;;;;81.60;36.27;;;;;;;-5.54;57.08;103294.86;3417463;82;20930;-68
2022/03/19 02:51:56;;;;;;;96.22;47.53;;;;;;;-5.55;57.76;103301.91;3377789;82;27198;-68
2022/03/19 02:56:52;;;;;;;99.92;46.85;;;;;;;-5.50;57.91;103289.44;3416716;82;21556;-69
2022/03/19 03:01:50;;;;;;;103.90;46.18;;;;;;;-5.54;57.87;103297.40;3368679;83;21592;-68
2022/03/19 03:06:46;;;;;;;86.37;44.38;;;;;;;-5.53;57.96;103304.63;3473787;81;21108;-69
2022/03/19 03:11:40;;;;;;;96.82;47.00;;;;;;;-5.59;57.90;103300.99;3399683;82;20930;-69
2022/03/19 03:16:33;;;;;;;94.52;46.77;;;;;;;-5.66;57.83;103302.22;3421387;82;22109;-69
2022/03/19 03:21:27;;;;;;;98.33;50.63;;;;;;;-5.67;58.37;103300.39;3438610;82;21007;-68
2022/03/19 03:26:19;;;;;;;87.20;45.25;;;;;;;-5.63;58.32;103296.27;3423303;81;20951;-69
2022/03/19 03:31:11;;;;;;;95.77;46.90;;;;;;;-5.67;58.37;103297.86;3480487;80;20910;-68
2022/03/19 03:36:03;;;;;;;99.83;48.48;;;;;;;-5.71;58.35;103298.20;3489927;80;20959;-68
2022/03/19 03:40:56;;;;;;;102.50;48.78;;;;;;;-5.77;58.41;103299.26;3423386;81;22119;-69
2022/03/19 03:45:50;;;;;;;98.60;47.65;;;;;;;-5.79;58.60;103303.23;3379225;81;21008;-69
2022/03/19 03:50:42;;;;;;;98.25;49.15;;;;;;;-5.83;58.98;103311.19;3478063;81;20950;-69
2022/03/19 03:55:36;;;;;;;97.10;47.08;;;;;;;-5.81;59.02;103311.02;3453883;81;20942;-69
2022/03/19 04:00:29;;;;;;;98.78;47.62;;;;;;;-5.84;58.56;103308.45;3475243;81;21624;-68
2022/03/19 04:05:21;;;;;;;102.67;48.98;;;;;;;-5.91;58.63;103309.31;3447914;81;21451;-69
2022/03/19 04:10:13;;;;;;;103.72;47.95;;;;;;;-5.97;58.77;103307.33;3411263;82;21009;-69
2022/03/19 04:15:07;;;;;;;102.62;50.30;;;;;;;-6.02;58.98;103311.81;3415290;82;20972;-68
2022/03/19 04:19:59;;;;;;;101.42;49.55;;;;;;;-6.06;59.25;103313.75;3450736;82;20948;-68
2022/03/19 04:24:52;;;;;;;108.65;50.85;;;;;;;-6.06;59.54;103308.34;3446695;82;21061;-69
2022/03/19 04:29:45;;;;;;;107.22;51.92;;;;;;;-6.06;59.44;103323.55;3442693;81;21388;-69
2022/03/19 04:34:37;;;;;;;105.50;48.95;;;;;;;-6.07;59.55;103323.35;3499618;81;20970;-69
2022/03/19 04:39:29;;;;;;;107.03;51.23;;;;;;;-6.08;59.92;103324.05;3424247;81;21535;-69
2022/03/19 04:44:22;;;;;;;102.67;48.95;;;;;;;-6.06;60.00;103327.34;3445518;81;20983;-68
2022/03/19 04:49:14;;;;;;;98.33;50.52;;;;;;;-6.05;59.96;103336.75;3471864;80;21086;-68
2022/03/19 04:54:07;;;;;;;102.35;52.58;;;;;;;-6.07;59.97;103333.48;3506165;81;21049;-69
2022/03/19 04:59:02;;;;;;;118.77;55.52;;;;;;;-6.06;60.25;103332.41;3436115;81;21120;-68
2022/03/19 05:03:55;;;;;;;113.10;54.20;;;;;;;-5.97;60.40;103328.86;3448361;81;21016;-68
2022/03/19 05:11:12;;;;;;;104.23;52.88;;;;;;;-5.93;60.19;103333.55;3468765;81;20927;-68
2022/03/19 05:13:48;;;;;;;116.05;52.50;;;;;;;-5.92;60.07;103334.08;3495970;81;21262;-68
2022/03/19 05:18:41;;;;;;;158.12;58.50;;;;;;;-5.91;59.97;103342.25;3421998;81;21000;-68
2022/03/19 05:23:34;;;;;;;108.00;52.67;;;;;;;-5.87;60.34;103345.70;3467788;81;20946;-68
2022/03/19 05:28:26;;;;;;;123.70;54.10;;;;;;;-5.76;60.59;103347.97;3464815;81;21752;-69
2022/03/19 05:33:19;;;;;;;119.85;53.45;;;;;;;-5.69;60.50;103344.92;3439242;82;20971;-68
2022/03/19 05:38:12;;;;;;;99.32;52.48;;;;;;;-5.61;60.60;103344.27;3468062;81;21476;-68
2022/03/19 05:43:04;;;;;;;99.87;49.90;;;;;;;-5.49;60.74;103357.52;3451178;82;20976;-68
2022/03/19 05:47:56;;;;;;;111.32;52.55;;;;;;;-5.37;60.95;103356.14;3437060;82;21505;-68
2022/03/19 05:52:48;;;;;;;97.65;51.95;;;;;;;-5.26;60.81;103357.83;3445590;82;21015;-68
2022/03/19 05:57:41;;;;;;;107.43;51.00;;;;;;;-5.15;60.90;103362.61;3444340;82;21018;-69
2022/03/19 06:02:39;;;;;;;97.45;50.10;;;;;;;-5.00;60.97;103366.09;3440717;80;22027;-68
2022/03/19 06:07:31;;;;;;;108.78;50.00;;;;;;;-4.84;61.18;103366.34;3411421;82;20912;-68
2022/03/19 06:12:23;;;;;;;95.80;48.25;;;;;;;-4.68;61.11;103378.89;3424689;82;20979;-69
2022/03/19 06:17:15;;;;;;;110.60;51.33;;;;;;;-4.50;61.07;103373.84;3409355;82;21001;-68
2022/03/19 06:22:07;;;;;;;109.07;52.48;;;;;;;-4.23;61.10;103366.44;3439141;80;20948;-68
2022/03/19 06:26:59;;;;;;;117.17;50.83;;;;;;;-3.69;60.56;103378.73;3442546;82;20978;-68
2022/03/19 06:31:51;;;;;;;88.58;47.23;;;;;;;-3.51;60.31;103379.98;3471430;82;20944;-69
2022/03/19 06:41:55;;;;;;;97.57;48.10;;;;;;;-3.10;59.81;103392.75;3401432;82;21027;-68
2022/03/19 06:46:47;;;;;;;91.02;48.92;;;;;;;-2.57;59.46;103394.89;3385325;82;21094;-69
2022/03/19 06:51:40;;;;;;;87.30;46.98;;;;;;;-2.41;59.26;103399.70;3352189;82;20939;-69
2022/03/19 06:56:32;;;;;;;96.50;49.10;;;;;;;-2.19;58.98;103405.92;3407165;82;21018;-69
2022/03/19 07:01:25;;;;;;;76.45;43.17;;;;;;;-2.08;59.25;103405.84;3427033;82;21205;-69
2022/03/19 07:06:21;;;;;;;56.68;31.45;;;;;;;-1.44;58.38;103408.18;3435711;82;21723;-68
2022/03/19 07:11:13;;;;;;;57.00;31.62;;;;;;;-1.29;57.59;103409.82;3440309;82;20966;-69
2022/03/19 07:16:06;;;;;;;49.42;27.65;;;;;;;-1.11;57.12;103407.44;3406608;80;20965;-68
2022/03/19 07:20:58;;;;;;;44.80;22.65;;;;;;;-0.97;56.54;103398.33;3418922;80;20959;-69
2022/03/19 07:25:50;;;;;;;42.98;25.27;;;;;;;-0.72;55.62;103403.49;3450459;80;20992;-69
2022/03/19 07:30:42;;;;;;;53.90;28.90;;;;;;;-0.42;55.40;103395.20;3445381;81;20978;-69
2022/03/19 07:35:35;;;;;;;32.63;24.70;;;;;;;1.06;54.53;103392.20;3488988;80;20919;-67
2022/03/19 07:45:41;;;;;;;17.70;14.38;;;;;;;8.09;45.65;103380.16;3451259;82;21019;-68
2022/03/19 07:50:34;;;;;;;15.32;12.80;;;;;;;8.25;43.78;103384.31;3474082;82;20948;-68
2022/03/19 07:55:27;;;;;;;13.88;11.85;;;;;;;12.42;39.48;103382.65;3418542;81;22970;-68
2022/03/19 08:00:25;;;;;;;12.95;11.75;;;;;;;15.30;36.58;103377.98;3431038;82;20967;-69
2022/03/19 08:05:17;;;;;;;13.50;11.93;;;;;;;15.84;34.30;103375.72;3471706;82;20963;-68
2022/03/19 08:10:11;;;;;;;13.53;10.90;;;;;;;16.27;33.24;103379.91;3415431;81;20947;-69
2022/03/19 08:15:06;;;;;;;14.18;11.55;;;;;;;17.19;32.02;103382.59;3448304;82;20971;-68
2022/03/19 08:19:59;;;;;;;13.62;12.23;;;;;;;15.83;31.69;103391.00;3411587;80;22476;-68
2022/03/19 08:24:52;;;;;;;14.45;13.05;;;;;;;17.04;29.75;103393.51;3446454;82;21335;-69
2022/03/19 08:29:44;;;;;;;15.15;13.62;;;;;;;19.50;27.60;103391.56;3440614;81;21002;-67
2022/03/19 08:34:37;;;;;;;15.13;13.58;;;;;;;18.31;27.63;103395.59;3479436;81;22041;-67
2022/03/19 08:44:40;;;;;;;23.73;15.78;;;;;;;20.53;25.04;103393.23;3485556;81;21073;-67
2022/03/19 08:49:33;;;;;;;17.25;14.95;;;;;;;17.60;26.62;103393.50;3479377;81;20935;-67
2022/03/19 08:54:25;;;;;;;17.77;14.68;;;;;;;16.30;26.60;103394.47;3420414;81;21437;-67
2022/03/19 08:59:21;;;;;;;20.30;14.35;;;;;;;15.74;26.21;103397.16;3489422;81;21464;-67
2022/03/19 09:04:14;;;;;;;11.80;10.63;;;;;;;15.44;26.41;103397.77;3470182;80;20943;-66
2022/03/19 09:09:07;;;;;;;11.00;9.90;;;;;;;15.86;24.96;103392.41;3430760;81;21093;-67
2022/03/19 09:14:01;;;;;;;10.48;9.45;;;;;;;15.99;24.91;103389.42;3412060;81;20985;-66
2022/03/19 09:18:53;;;;;;;9.63;8.68;;;;;;;15.47;25.17;103397.90;3485523;81;20980;-66
2022/03/19 09:23:45;;;;;;;9.55;7.92;;;;;;;15.85;24.34;103395.89;3457031;81;20959;-66
2022/03/19 09:28:38;;;;;;;9.35;8.48;;;;;;;15.62;24.09;103395.86;3473546;81;20927;-66
2022/03/19 09:33:31;;;;;;;9.38;8.48;;;;;;;16.30;23.89;103388.34;3376128;83;21012;-69
2022/03/19 09:38:24;;;;;;;10.30;8.78;;;;;;;17.00;23.43;103393.83;3374984;83;20976;-68
2022/03/19 09:43:17;;;;;;;9.40;8.30;;;;;;;18.73;21.71;103384.42;3387882;83;21031;-68
2022/03/19 09:48:09;;;;;;;10.80;8.55;;;;;;;19.29;21.75;103386.67;3364749;83;21052;-69
2022/03/19 09:53:04;;;;;;;9.88;8.75;;;;;;;17.99;21.87;103400.44;3402791;83;21001;-69
2022/03/19 09:57:58;;;;;;;11.73;8.53;;;;;;;17.58;21.86;103393.88;3402991;83;20992;-69
2022/03/19 10:03:03;;;;;;;9.50;8.60;;;;;;;19.88;20.76;103395.04;3421982;82;20960;-69
2022/03/19 10:13:10;;;;;;;8.85;8.05;;;;;;;23.39;19.14;103380.34;3379809;81;21001;-69
2022/03/19 10:18:03;;;;;;;14.53;8.30;;;;;;;24.69;17.70;103382.54;3417300;81;21043;-69
2022/03/19 10:22:57;;;;;;;9.30;8.40;;;;;;;25.22;17.81;103385.13;3366595;82;21604;-69
2022/03/19 10:27:49;;;;;;;8.83;7.83;;;;;;;25.78;17.49;103379.22;3378008;83;21014;-69
2022/03/19 10:32:42;;;;;;;10.00;7.58;;;;;;;26.14;17.01;103382.14;3414258;79;21010;-69
2022/03/19 10:37:39;;;;;;;9.03;8.23;;;;;;;26.21;16.69;103382.55;3441610;81;20995;-69
2022/03/19 10:42:41;;;;;;;8.08;7.37;;;;;;;25.79;16.76;103370.31;3353386;80;20998;-70
2022/03/19 10:47:45;;;;;;;8.85;8.08;;;;;;;26.30;16.72;103372.27;3422281;82;21158;-69
2022/03/19 10:52:38;;;;;;;10.00;8.10;;;;;;;26.47;16.37;103370.82;3416024;82;20939;-69
2022/03/19 10:57:31;;;;;;;8.80;7.90;;;;;;;26.21;15.83;103366.55;3430489;81;20999;-69
2022/03/19 11:02:28;;;;;;;9.13;8.33;;;;;;;25.34;15.30;103365.16;3475198;80;21503;-69
2022/03/19 11:07:22;;;;;;;9.68;8.70;;;;;;;24.85;15.88;103359.48;3445306;81;21019;-69
2022/03/19 11:12:19;;;;;;;11.38;9.25;;;;;;;24.93;16.05;103352.37;3459248;81;20977;-69
2022/03/19 11:17:28;;;;;;;10.80;9.68;;;;;;;24.96;15.91;103355.47;3496412;80;21074;-69
2022/03/19 11:22:21;;;;;;;9.43;8.63;;;;;;;25.04;16.01;103351.03;3433623;81;21029;-69
2022/03/19 11:27:15;;;;;;;9.18;8.38;;;;;;;24.63;15.38;103358.61;3418168;81;22138;-68
2022/03/19 11:32:07;;;;;;;10.38;9.48;;;;;;;23.95;15.80;103346.53;3463614;81;20939;-69
2022/03/19 11:37:02;;;;;;;8.85;8.10;;;;;;;23.75;16.20;103333.58;3485471;80;49429;-69
2022/03/19 11:41:55;;;;;;;10.13;9.23;;;;;;;23.42;15.49;103337.89;3453753;82;20951;-69
2022/03/19 11:47:06;;;;;;;9.53;8.53;;;;;;;23.02;16.25;103328.36;3441432;82;20990;-69
2022/03/19 11:51:58;;;;;;;9.10;8.30;;;;;;;22.66;16.19;103323.25;3408591;80;20943;-69
2022/03/19 11:56:55;;;;;;;10.60;9.50;;;;;;;22.15;16.47;103318.78;3379147;81;20990;-69
2022/03/19 12:01:56;;;;;;;9.75;8.83;;;;;;;21.15;16.80;103320.20;3498990;80;21131;-69
2022/03/19 12:06:59;;;;;;;11.12;8.70;;;;;;;19.70;17.30;103329.52;3461618;80;22465;-69
2022/03/19 12:12:15;;;;;;;10.10;9.10;;;;;;;18.20;18.39;103321.13;3487959;80;21598;-69
2022/03/19 12:17:27;;;;;;;11.50;8.80;;;;;;;17.46;18.89;103329.55;3477729;80;21270;-68
2022/03/19 12:22:39;;;;;;;9.75;8.48;;;;;;;16.48;18.77;103319.82;3414025;80;21015;-68
2022/03/19 12:27:32;;;;;;;17.02;10.10;;;;;;;15.60;19.27;103331.09;3434062;80;20994;-69
2022/03/19 12:32:25;;;;;;;12.53;8.08;;;;;;;14.98;19.50;103326.48;3448014;80;20973;-68
2022/03/19 12:37:18;;;;;;;9.93;7.90;;;;;;;14.55;19.62;103330.80;3485790;80;21068;-69
2022/03/19 12:42:11;;;;;;;11.00;9.73;;;;;;;14.43;19.82;103324.65;3444423;81;21979;-69
2022/03/19 12:47:07;;;;;;;11.25;10.08;;;;;;;14.15;19.92;103337.34;3453902;80;21510;-68
2022/03/19 12:52:10;;;;;;;16.17;9.80;;;;;;;14.13;20.36;103323.30;3497048;80;22327;-68
2022/03/19 12:57:13;;;;;;;9.10;8.08;;;;;;;14.24;20.58;103317.72;3459954;80;21022;-68
2022/03/19 13:02:05;;;;;;;9.75;8.48;;;;;;;14.11;20.02;103321.53;3440266;82;20967;-68
2022/03/19 13:06:59;;;;;;;13.30;8.90;;;;;;;13.66;20.61;103326.89;3433747;80;21015;-68
2022/03/19 13:11:51;;;;;;;15.85;10.28;;;;;;;13.53;20.69;103321.51;3465116;80;21015;-68
2022/03/19 13:16:50;;;;;;;11.20;9.43;;;;;;;13.64;20.89;103316.77;3490623;80;21878;-69
2022/03/19 13:21:45;;;;;;;11.43;8.88;;;;;;;13.61;20.51;103322.77;3416906;80;21519;-68
2022/03/19 13:26:38;;;;;;;9.65;8.50;;;;;;;13.32;20.51;103324.92;3450781;80;20984;-68
2022/03/19 13:31:47;;;;;;;11.03;9.28;;;;;;;13.09;20.60;103317.65;3481923;80;20963;-68
2022/03/19 13:36:43;;;;;;;12.20;10.13;;;;;;;13.22;21.17;103306.98;3490266;80;20971;-68
2022/03/19 13:41:37;;;;;;;10.65;8.43;;;;;;;13.24;20.94;103309.25;3495330;80;20989;-69
2022/03/19 13:46:30;;;;;;;11.70;9.70;;;;;;;13.14;21.08;103309.62;3495315;80;21086;-68
2022/03/19 13:51:22;;;;;;;10.45;9.35;;;;;;;13.01;21.01;103305.95;3464225;80;20956;-68
2022/03/19 13:56:14;;;;;;;17.67;11.63;;;;;;;12.77;21.28;103298.73;3474793;80;21035;-68
2022/03/19 14:01:13;;;;;;;11.05;9.90;;;;;;;12.89;21.63;103296.69;3463285;80;20995;-68
2022/03/19 14:06:05;;;;;;;11.25;9.45;;;;;;;12.80;21.51;103297.55;3436511;80;21395;-68
2022/03/19 14:10:57;;;;;;;13.90;10.78;;;;;;;12.49;21.63;103303.87;3481501;80;20984;-68
2022/03/19 14:15:55;;;;;;;10.98;9.85;;;;;;;12.49;21.67;103296.45;3460902;80;21164;-69
2022/03/19 14:20:48;;;;;;;10.32;8.93;;;;;;;12.23;21.53;103295.13;3450769;81;21444;-69
2022/03/19 14:25:40;;;;;;;13.08;9.95;;;;;;;11.98;21.74;103308.19;3474489;81;21538;-68
2022/03/19 14:30:32;;;;;;;12.65;9.75;;;;;;;11.98;22.16;103309.48;3473453;81;21689;-68
2022/03/19 14:36:02;;;;;;;12.20;9.83;;;;;;;11.71;22.17;103301.96;3352950;83;20997;-68
2022/03/19 14:40:56;;;;;;;18.32;10.00;;;;;;;11.68;22.46;103304.42;3359871;81;20957;-68
2022/03/19 14:45:52;;;;;;;11.53;8.68;;;;;;;11.65;22.53;103304.25;3385759;81;21036;-68
2022/03/19 14:50:46;;;;;;;11.25;9.40;;;;;;;11.45;22.52;103304.06;3314380;83;20969;-68
2022/03/19 14:55:39;;;;;;;12.15;8.83;;;;;;;11.38;22.71;103300.63;3439539;81;21456;-68
2022/03/19 15:00:33;;;;;;;10.85;8.93;;;;;;;11.27;22.78;103297.86;3443170;81;21030;-69
2022/03/19 15:05:25;;;;;;;10.55;8.98;;;;;;;11.16;22.86;103292.44;3444360;81;20885;-68
2022/03/19 15:10:17;;;;;;;11.70;9.43;;;;;;;11.04;22.97;103298.76;3427817;81;22609;-68
2022/03/19 15:15:10;;;;;;;13.18;8.85;;;;;;;10.92;22.89;103295.46;3455489;81;21560;-68
2022/03/19 15:20:05;;;;;;;11.88;8.90;;;;;;;10.68;22.98;103295.86;3396114;82;20966;-68
2022/03/19 15:24:57;;;;;;;10.03;8.33;;;;;;;10.57;23.27;103300.86;3413171;81;21472;-68
2022/03/19 15:29:52;;;;;;;14.03;10.25;;;;;;;10.40;23.30;103301.56;3418549;82;22132;-68
2022/03/19 15:34:44;;;;;;;18.65;9.15;;;;;;;10.25;23.55;103293.73;3408956;82;21030;-68
2022/03/19 15:39:36;;;;;;;13.85;9.43;;;;;;;10.15;24.00;103298.77;3456630;81;20928;-68
2022/03/19 15:44:28;;;;;;;11.88;8.83;;;;;;;10.00;24.19;103303.05;3442437;81;21916;-68
2022/03/19 15:49:20;;;;;;;16.07;9.38;;;;;;;9.86;24.75;103298.31;3473872;81;22128;-67
2022/03/19 15:54:12;;;;;;;15.08;10.10;;;;;;;9.62;25.07;103298.98;3504697;80;21482;-68
2022/03/19 15:59:04;;;;;;;11.95;9.30;;;;;;;9.41;25.24;103307.23;3467393;81;20934;-68
2022/03/19 16:03:56;;;;;;;14.00;9.28;;;;;;;9.16;25.41;103302.19;3488926;81;21025;-68
2022/03/19 16:08:49;;;;;;;13.18;8.75;;;;;;;8.98;25.71;103304.50;3433806;81;21494;-68
2022/03/19 16:13:41;;;;;;;19.75;9.38;;;;;;;8.79;25.78;103306.28;3450948;81;21493;-68
2022/03/19 16:18:34;;;;;;;22.13;10.90;;;;;;;8.61;26.32;103305.96;3455460;81;20978;-68
2022/03/19 16:23:26;;;;;;;19.87;10.40;;;;;;;8.31;26.98;103312.14;3467986;80;21010;-68
2022/03/19 16:28:19;;;;;;;20.20;10.60;;;;;;;7.98;27.67;103306.47;3415615;83;21095;-68
2022/03/19 16:33:12;;;;;;;20.85;12.15;;;;;;;7.64;28.01;103308.00;3449167;81;21034;-68
2022/03/19 16:38:04;;;;;;;19.98;11.80;;;;;;;7.33;28.52;103312.67;3483521;80;20922;-68
2022/03/19 16:42:56;;;;;;;23.35;12.07;;;;;;;7.01;29.13;103312.94;3421496;81;21071;-68
2022/03/19 16:47:49;;;;;;;18.40;10.15;;;;;;;6.29;30.64;103326.56;3470147;82;21034;-68
2022/03/19 16:52:41;;;;;;;19.73;12.00;;;;;;;6.29;30.64;103326.56;3444057;82;20975;-68
2022/03/19 16:57:37;;;;;;;17.73;10.85;;;;;;;5.89;31.09;103339.86;3497376;81;21006;-68
2022/03/19 17:02:29;;;;;;;22.37;12.40;;;;;;;5.55;31.70;103331.16;3487785;80;21844;-68
2022/03/19 17:07:21;;;;;;;34.95;13.85;;;;;;;5.23;32.16;103340.19;3403008;82;21550;-68
2022/03/19 17:12:13;;;;;;;23.00;11.57;;;;;;;4.88;32.48;103337.84;3452556;81;20960;-69
2022/03/19 17:17:06;;;;;;;29.48;12.35;;;;;;;4.62;32.95;103337.36;3480552;81;21980;-70
2022/03/19 17:21:58;;;;;;;24.47;11.85;;;;;;;4.38;33.41;103346.10;3430203;81;22164;-69
2022/03/19 17:26:50;;;;;;;27.58;12.47;;;;;;;4.14;33.84;103345.84;3417142;81;20963;-69
2022/03/19 17:31:43;;;;;;;27.35;12.70;;;;;;;3.86;34.16;103363.55;3407805;82;21547;-68
2022/03/19 17:36:35;;;;;;;24.63;12.53;;;;;;;3.62;34.72;103365.41;3344025;84;20992;-68
2022/03/19 17:41:27;;;;;;;25.72;14.53;;;;;;;3.44;35.06;103372.41;3394675;83;21060;-68
2022/03/19 17:46:20;;;;;;;35.33;17.10;;;;;;;3.23;35.22;103374.36;3366268;83;21028;-68
2022/03/19 17:51:12;;;;;;;39.10;15.95;;;;;;;3.06;35.59;103383.14;3371334;82;21058;-68
2022/03/19 17:56:06;;;;;;;34.63;17.85;;;;;;;2.91;36.07;103381.74;3390855;83;20977;-68
2022/03/19 18:00:58;;;;;;;38.38;18.05;;;;;;;2.75;36.37;103388.44;3377323;83;21012;-68
2022/03/19 18:05:50;;;;;;;53.45;15.32;;;;;;;2.57;36.55;103391.50;3344219;83;21072;-68
2022/03/19 18:10:42;;;;;;;97.22;35.03;;;;;;;2.38;37.43;103403.00;3366572;83;21022;-68
2022/03/19 18:15:34;;;;;;;147.68;54.70;;;;;;;2.22;37.55;103399.02;3390460;83;21549;-68
2022/03/19 18:20:27;;;;;;;59.42;23.02;;;;;;;2.02;37.88;103407.42;3375017;83;22159;-68
2022/03/19 18:25:20;;;;;;;73.70;26.07;;;;;;;1.90;38.08;103407.14;3388808;83;21144;-68
2022/03/19 18:30:13;;;;;;;40.90;18.55;;;;;;;1.81;38.36;103407.95;3384044;83;21574;-68
2022/03/19 18:35:08;;;;;;;31.12;14.87;;;;;;;1.64;38.63;103412.72;3374133;82;21044;-67
2022/03/19 18:40:02;;;;;;;46.75;19.12;;;;;;;1.55;38.94;103406.71;3425473;81;21011;-68
2022/03/19 18:44:55;;;;;;;46.00;21.45;;;;;;;1.41;39.28;103415.23;3455455;81;20951;-68
2022/03/19 18:49:51;;;;;;;44.23;19.82;;;;;;;1.29;39.42;103423.04;3426165;81;21869;-68
2022/03/19 18:54:43;;;;;;;51.25;20.55;;;;;;;1.20;39.59;103425.60;3418338;81;20951;-68
2022/03/19 18:59:36;;;;;;;49.13;20.55;;;;;;;1.08;39.84;103422.72;3410528;81;21382;-68
2022/03/19 19:04:29;;;;;;;61.88;24.00;;;;;;;0.98;40.25;103436.64;3431669;81;21663;-70
2022/03/19 19:09:21;;;;;;;74.47;26.10;;;;;;;0.91;40.42;103440.63;3416283;81;20971;-69
2022/03/19 19:14:13;;;;;;;60.05;24.00;;;;;;;0.83;40.69;103439.87;3364952;82;21944;-68
2022/03/19 19:19:06;;;;;;;59.30;25.27;;;;;;;0.73;40.93;103443.19;3355132;82;21023;-69
2022/03/19 19:23:58;;;;;;;51.70;23.15;;;;;;;0.61;41.22;103449.63;3378339;83;21030;-68
2022/03/19 19:28:51;;;;;;;46.68;24.47;;;;;;;0.54;41.45;103448.09;3399875;82;21013;-69
2022/03/19 19:33:43;;;;;;;41.83;17.98;;;;;;;0.46;41.72;103450.63;3433857;82;22423;-68
2022/03/19 19:38:37;;;;;;;44.55;20.68;;;;;;;0.38;42.04;103449.86;3499775;81;21484;-69
2022/03/19 19:43:29;;;;;;;53.58;20.85;;;;;;;0.34;42.14;103448.64;3440550;82;21583;-68
2022/03/19 19:48:21;;;;;;;48.02;20.80;;;;;;;0.26;42.33;103452.05;3470329;81;21700;-68
2022/03/19 19:53:13;;;;;;;44.67;20.72;;;;;;;0.17;42.78;103443.05;3434837;82;20916;-69
2022/03/19 19:58:06;;;;;;;43.30;18.07;;;;;;;0.11;42.85;103449.22;3454340;81;20995;-68
2022/03/19 20:03:06;;;;;;;36.45;18.85;;;;;;;0.03;42.97;103451.34;3415363;82;21049;-68
2022/03/19 20:07:59;;;;;;;39.03;20.10;;;;;;;-0.05;43.31;103446.34;3448146;82;21480;-68
2022/03/19 20:12:54;;;;;;;39.10;20.52;;;;;;;-0.13;43.36;103444.63;3450879;82;23123;-68
2022/03/19 20:17:47;;;;;;;60.60;28.10;;;;;;;-0.19;43.59;103451.67;3417802;82;21045;-68
2022/03/19 20:22:42;;;;;;;69.42;33.42;;;;;;;-0.18;43.76;103457.30;3449420;82;20975;-68
2022/03/19 20:27:35;;;;;;;56.88;27.15;;;;;;;-0.27;43.83;103464.02;3451892;82;21041;-69
2022/03/19 20:32:28;;;;;;;50.28;25.80;;;;;;;-0.34;43.96;103463.77;3428311;82;20979;-68
2022/03/19 20:37:20;;;;;;;50.10;24.75;;;;;;;-0.43;44.07;103463.70;3411618;82;21683;-68
2022/03/19 20:42:12;;;;;;;44.67;23.62;;;;;;;-0.55;44.32;103464.97;3395626;83;20952;-68
2022/03/19 20:47:06;;;;;;;46.77;25.37;;;;;;;-0.59;44.60;103465.36;3438334;83;21254;-68
2022/03/19 20:51:59;;;;;;;43.13;24.47;;;;;;;-0.69;44.67;103463.87;3387125;81;21035;-68
2022/03/19 20:56:53;;;;;;;46.65;26.12;;;;;;;-0.78;44.90;103472.36;3342201;83;21002;-68
2022/03/19 21:01:47;;;;;;;49.03;29.05;;;;;;;-0.83;45.00;103464.56;3369541;82;21865;-68
2022/03/19 21:06:39;;;;;;;73.40;36.88;;;;;;;-0.90;45.11;103465.92;3387608;81;21029;-68
2022/03/19 21:11:39;;;;;;;60.55;33.23;;;;;;;-0.96;45.28;103464.01;3359296;83;20994;-68
2022/03/19 21:16:33;;;;;;;43.13;26.17;;;;;;;-1.02;45.51;103463.33;3373050;83;20971;-68
2022/03/19 21:21:25;;;;;;;44.45;27.22;;;;;;;-1.09;45.64;103466.89;3369328;84;21564;-68
2022/03/19 21:26:18;;;;;;;53.78;28.42;;;;;;;-1.17;45.78;103474.08;3372464;83;21475;-68
2022/03/19 21:31:11;;;;;;;63.92;33.53;;;;;;;-1.21;45.88;103472.84;3339275;84;21647;-68
2022/03/19 21:36:04;;;;;;;75.12;33.98;;;;;;;-1.27;46.11;103469.64;3346705;82;20990;-68
2022/03/19 21:40:56;;;;;;;60.23;34.18;;;;;;;-1.30;46.08;103479.88;3381455;84;21029;-68
2022/03/19 21:45:55;;;;;;;72.12;37.73;;;;;;;-1.39;46.27;103481.95;3366504;83;21460;-68
2022/03/19 21:50:45;;;;;;;65.90;35.88;;;;;;;-1.42;46.42;103492.20;3385627;82;21073;-68
2022/03/19 21:55:38;;;;;;;68.55;37.38;;;;;;;-1.50;46.62;103488.81;3431334;82;20985;-68
2022/03/19 22:00:32;;;;;;;72.27;38.67;;;;;;;-1.58;46.82;103504.53;3389638;83;20965;-68
2022/03/19 22:05:25;;;;;;;70.52;38.75;;;;;;;-1.64;47.02;103501.31;3417152;81;21025;-68
2022/03/19 22:10:17;;;;;;;73.78;41.05;;;;;;;-1.68;47.18;103508.44;3364759;82;21190;-68
2022/03/19 22:15:11;;;;;;;80.50;43.13;;;;;;;-1.75;47.41;103511.59;3383455;82;23207;-68
2022/03/19 22:20:11;;;;;;;82.53;44.10;;;;;;;-1.80;47.55;103510.55;3402498;83;20953;-68
2022/03/19 22:25:05;;;;;;;88.00;47.67;;;;;;;-1.86;47.79;103505.68;3404730;82;21022;-69
2022/03/19 22:29:58;;;;;;;90.67;47.20;;;;;;;-1.93;47.88;103510.45;3423698;83;21086;-69
2022/03/19 22:34:52;;;;;;;94.65;50.03;;;;;;;-1.97;48.15;103511.20;3382433;82;20910;-68
2022/03/19 22:39:45;;;;;;;102.35;52.27;;;;;;;-2.02;48.40;103513.59;3455072;81;22541;-68